Time;durP1;ratioP1;P1;durP2;ratioP2;P2;SDS_P1;SDS_P2;PMS_P1;PMS_P2;Temp;Humidity;BMP_temperature;BMP_pressure;BME280_temperature;BME280_humidity;BME280_pressure;Samples;Min_cycle;Max_cycle;Signal;HPM_P1;HPM_P2
2023/08/02 00:00:57;;;;;;;2.97;1.70;;;13.30;99.90;;;;;;2061785;28;20233;-67
2023/08/02 00:01:58;;;;;;;2.75;1.90;;;13.30;99.90;;;;;;2078300;28;20227;-66
2023/08/02 00:02:59;;;;;;;3.13;1.87;;;13.30;99.90;;;;;;2082993;28;20222;-66
2023/08/02 00:03:59;;;;;;;2.83;1.48;;;13.30;99.90;;;;;;2085334;28;20669;-66
2023/08/02 00:05:00;;;;;;;2.27;1.43;;;13.20;99.90;;;;;;2076684;28;20231;-66
2023/08/02 00:06:01;;;;;;;4.90;2.30;;;13.20;99.90;;;;;;2062107;28;20673;-66
2023/08/02 00:07:03;;;;;;;2.20;1.67;;;13.10;99.90;;;;;;2069990;28;20182;-66
2023/08/02 00:08:05;;;;;;;4.03;1.80;;;13.00;99.90;;;;;;2062108;28;20190;-66
2023/08/02 00:09:06;;;;;;;2.63;1.88;;;12.90;99.90;;;;;;2063109;28;20681;-66
2023/08/02 00:10:07;;;;;;;2.40;1.70;;;12.90;99.90;;;;;;2069091;28;20198;-66
2023/08/02 00:11:16;;;;;;;2.47;1.50;;;12.90;99.90;;;;;;2077444;28;20212;-66
2023/08/02 00:12:17;;;;;;;4.35;1.67;;;12.90;99.90;;;;;;2076392;28;20304;-66
2023/08/02 00:13:18;;;;;;;2.20;1.80;;;12.90;99.90;;;;;;2078117;28;20708;-66
2023/08/02 00:14:20;;;;;;;1.80;1.60;;;12.90;99.90;;;;;;2078951;28;20615;-66
2023/08/02 00:15:22;;;;;;;2.00;1.60;;;12.80;99.90;;;;;;2078735;28;20310;-66
2023/08/02 00:16:23;;;;;;;2.25;1.75;;;12.90;99.90;;;;;;2078146;28;20236;-66
2023/08/02 00:17:23;;;;;;;3.23;1.53;;;13.00;99.90;;;;;;2077872;28;20317;-66
2023/08/02 00:18:24;;;;;;;2.23;1.40;;;13.00;99.90;;;;;;2078270;28;20225;-66
2023/08/02 00:19:25;;;;;;;3.23;1.40;;;13.00;99.90;;;;;;2078221;28;20607;-66
2023/08/02 00:20:26;;;;;;;5.13;1.90;;;13.10;99.90;;;;;;2086296;28;20689;-66
2023/08/02 00:21:26;;;;;;;2.40;1.80;;;13.00;99.90;;;;;;2083117;28;20221;-66
2023/08/02 00:22:27;;;;;;;2.47;1.80;;;13.00;99.90;;;;;;2083353;28;20398;-66
2023/08/02 00:23:28;;;;;;;2.47;1.60;;;13.00;99.90;;;;;;2081294;28;20232;-66
2023/08/02 00:24:28;;;;;;;3.57;1.70;;;13.00;99.90;;;;;;2084324;28;20228;-66
2023/08/02 00:25:29;;;;;;;2.60;1.73;;;13.00;99.90;;;;;;2084167;28;20231;-66
2023/08/02 00:26:30;;;;;;;2.23;1.43;;;13.10;99.90;;;;;;2084436;28;20227;-66
2023/08/02 00:27:31;;;;;;;2.73;1.37;;;13.20;99.90;;;;;;2081160;28;20243;-66
2023/08/02 00:28:31;;;;;;;2.40;1.40;;;13.20;99.90;;;;;;2079057;28;20225;-66
2023/08/02 00:29:32;;;;;;;3.67;1.47;;;13.20;99.90;;;;;;2081311;28;20327;-66
2023/08/02 00:30:46;;;;;;;2.47;1.57;;;13.20;99.90;;;;;;2074609;28;20307;-66
2023/08/02 00:31:47;;;;;;;2.88;1.75;;;13.20;99.90;;;;;;2076705;28;20251;-66
2023/08/02 00:32:48;;;;;;;2.47;1.40;;;13.20;99.90;;;;;;2071060;28;20226;-66
2023/08/02 00:33:50;;;;;;;2.72;1.40;;;13.10;99.90;;;;;;2077818;28;20592;-66
2023/08/02 00:34:54;;;;;;;3.72;1.42;;;13.10;99.90;;;;;;2085312;28;20298;-66
2023/08/02 00:35:55;;;;;;;2.10;1.58;;;13.00;99.90;;;;;;2085828;28;20267;-66
2023/08/02 00:36:56;;;;;;;5.30;1.77;;;13.00;99.90;;;;;;2083764;28;20266;-66
2023/08/02 00:37:56;;;;;;;2.03;1.50;;;13.00;99.90;;;;;;2077817;28;20314;-67
2023/08/02 00:38:57;;;;;;;3.67;1.80;;;13.00;99.90;;;;;;2084050;28;20192;-67
2023/08/02 00:39:58;;;;;;;4.40;2.37;;;13.00;99.90;;;;;;2053493;28;20186;-66
2023/08/02 00:41:05;;;;;;;8.93;2.07;;;12.90;99.90;;;;;;2077341;28;20204;-66
2023/08/02 00:42:06;;;;;;;2.90;1.45;;;12.80;99.90;;;;;;2080614;28;20184;-66
2023/08/02 00:43:07;;;;;;;3.03;1.58;;;12.80;99.90;;;;;;2077509;28;20642;-66
2023/08/02 00:44:08;;;;;;;3.17;2.10;;;12.80;99.90;;;;;;2066327;28;20206;-66
2023/08/02 00:45:09;;;;;;;5.07;1.70;;;12.80;99.90;;;;;;2067374;28;20207;-66
2023/08/02 00:46:12;;;;;;;4.57;1.92;;;12.80;99.90;;;;;;2071845;28;20252;-66
2023/08/02 00:47:13;;;;;;;3.72;1.55;;;12.70;99.90;;;;;;2078483;28;20693;-66
2023/08/02 00:48:14;;;;;;;1.43;1.27;;;12.70;99.90;;;;;;2078150;28;20188;-66
2023/08/02 00:49:14;;;;;;;4.13;2.13;;;12.70;99.90;;;;;;2086093;28;20194;-66
2023/08/02 00:50:16;;;;;;;5.07;1.97;;;12.80;99.90;;;;;;2086772;28;20719;-66
2023/08/02 00:51:19;;;;;;;2.17;1.60;;;12.70;99.90;;;;;;2083341;28;20244;-66
2023/08/02 00:52:20;;;;;;;2.22;1.80;;;12.80;99.90;;;;;;2072980;28;20239;-66
2023/08/02 00:53:21;;;;;;;4.63;1.83;;;12.70;99.90;;;;;;2078154;28;20232;-66
2023/08/02 00:54:22;;;;;;;1.98;1.50;;;12.70;99.90;;;;;;2070190;28;20237;-66
2023/08/02 00:55:23;;;;;;;4.03;1.70;;;12.60;99.90;;;;;;2073757;28;20259;-66
2023/08/02 00:56:24;;;;;;;2.23;1.70;;;12.60;99.90;;;;;;2078412;28;20691;-66
2023/08/02 00:57:24;;;;;;;5.20;2.50;;;12.60;99.90;;;;;;2074844;28;20236;-66
2023/08/02 00:58:25;;;;;;;2.40;1.97;;;12.50;99.90;;;;;;2069957;28;21114;-67
2023/08/02 00:59:26;;;;;;;6.40;2.10;;;12.40;99.90;;;;;;2069641;28;20236;-66
2023/08/02 01:00:27;;;;;;;2.20;1.80;;;12.30;99.90;;;;;;2076635;28;20224;-66
2023/08/02 01:01:28;;;;;;;3.35;1.70;;;12.40;99.90;;;;;;2077673;28;20220;-66
2023/08/02 01:02:29;;;;;;;2.30;1.70;;;12.40;99.90;;;;;;2094169;28;20295;-66
2023/08/02 01:03:30;;;;;;;2.30;1.70;;;12.50;99.90;;;;;;2084125;28;20227;-66
2023/08/02 01:04:30;;;;;;;2.70;1.90;;;12.50;99.90;;;;;;2069380;28;20229;-66
2023/08/02 01:05:38;;;;;;;2.33;1.60;;;12.60;99.90;;;;;;2079120;28;20711;-66
2023/08/02 01:07:01;;;;;;;2.88;1.60;;;12.70;99.90;;;;;;2071574;28;20217;-66
2023/08/02 01:08:08;;;;;;;2.40;1.65;;;12.60;99.90;;;;;;2070436;28;20220;-66
2023/08/02 01:09:19;;;;;;;3.47;1.73;;;12.60;99.90;;;;;;2084133;28;20611;-66
2023/08/02 01:10:30;;;;;;;3.55;2.03;;;12.50;99.90;;;;;;2089176;28;20231;-66
2023/08/02 01:11:38;;;;;;;3.08;1.98;;;12.40;99.90;;;;;;2080741;28;20235;-66
2023/08/02 01:12:45;;;;;;;3.53;1.90;;;12.40;99.90;;;;;;2084351;28;20725;-65
2023/08/02 01:13:54;;;;;;;4.10;2.00;;;12.40;99.90;;;;;;2072741;28;20271;-65
2023/08/02 01:14:58;;;;;;;6.05;1.92;;;12.40;99.90;;;;;;2079099;28;20798;-65
2023/08/02 01:15:59;;;;;;;3.40;2.30;;;12.30;99.90;;;;;;2077999;28;20240;-66
2023/08/02 01:17:02;;;;;;;2.08;1.60;;;12.40;99.90;;;;;;2079228;28;20185;-66
2023/08/02 01:18:03;;;;;;;1.85;1.67;;;12.40;99.90;;;;;;2077737;28;20193;-66
2023/08/02 01:19:11;;;;;;;3.83;1.90;;;12.50;99.90;;;;;;2063887;28;20641;-66
2023/08/02 01:20:12;;;;;;;3.53;1.70;;;12.40;99.90;;;;;;2079360;28;20185;-66
2023/08/02 01:21:12;;;;;;;2.33;1.90;;;12.40;99.90;;;;;;2086885;28;20192;-65
2023/08/02 01:22:13;;;;;;;4.27;1.90;;;12.40;99.90;;;;;;2093935;28;20420;-66
2023/08/02 01:23:14;;;;;;;3.07;1.87;;;12.50;99.90;;;;;;2087492;28;20172;-66
2023/08/02 01:24:15;;;;;;;2.17;1.80;;;12.50;99.90;;;;;;2079025;28;20651;-66
2023/08/02 01:25:16;;;;;;;1.90;1.70;;;12.50;99.90;;;;;;2078871;28;20201;-66
2023/08/02 01:26:20;;;;;;;1.90;1.70;;;12.50;99.90;;;;;;2087423;28;20238;-66
2023/08/02 01:27:50;;;;;;;2.92;2.00;;;12.60;99.90;;;;;;2075097;28;20390;-65
2023/08/02 01:28:55;;;;;;;4.53;1.70;;;12.50;99.90;;;;;;2082695;28;20220;-66
2023/08/02 01:29:57;;;;;;;3.45;1.80;;;12.50;99.90;;;;;;2086624;28;20271;-66
2023/08/02 01:31:00;;;;;;;4.03;2.03;;;12.30;99.90;;;;;;2084529;28;20238;-66
2023/08/02 01:32:03;;;;;;;4.68;2.00;;;12.20;99.90;;;;;;2083071;28;20200;-66
2023/08/02 01:33:05;;;;;;;2.38;1.90;;;12.20;99.90;;;;;;2090076;28;20207;-66
2023/08/02 01:34:06;;;;;;;1.73;1.35;;;12.10;99.90;;;;;;2089953;28;20711;-66
2023/08/02 01:35:08;;;;;;;3.13;2.15;;;12.10;99.90;;;;;;2084109;28;20254;-66
2023/08/02 01:36:09;;;;;;;4.60;2.38;;;12.10;99.90;;;;;;2079351;28;20762;-66
2023/08/02 01:37:10;;;;;;;2.85;2.00;;;12.10;99.90;;;;;;2086968;28;20187;-66
2023/08/02 01:38:11;;;;;;;2.53;1.57;;;12.00;99.90;;;;;;2078970;28;20219;-66
2023/08/02 01:39:14;;;;;;;2.37;1.77;;;12.10;99.90;;;;;;2067770;28;20182;-66
2023/08/02 01:40:14;;;;;;;2.65;1.70;;;12.00;99.90;;;;;;2071206;28;20653;-66
2023/08/02 01:41:15;;;;;;;2.90;2.07;;;12.10;99.90;;;;;;2084570;28;20185;-66
2023/08/02 01:42:18;;;;;;;2.97;1.80;;;12.10;99.90;;;;;;2084116;28;21162;-66
2023/08/02 01:43:19;;;;;;;2.90;2.00;;;12.20;99.90;;;;;;2062426;28;20272;-66
2023/08/02 01:44:20;;;;;;;3.00;2.07;;;12.10;99.90;;;;;;2070927;28;20229;-66
2023/08/02 01:45:21;;;;;;;2.93;1.80;;;12.10;99.90;;;;;;2079547;28;20335;-66
2023/08/02 01:46:22;;;;;;;2.90;1.98;;;12.20;99.90;;;;;;2078876;28;20232;-66
2023/08/02 01:47:22;;;;;;;1.90;1.67;;;12.20;99.90;;;;;;2070712;28;20688;-66
2023/08/02 01:48:25;;;;;;;2.20;1.77;;;12.10;99.90;;;;;;2076570;28;20222;-66
2023/08/02 01:49:26;;;;;;;3.25;1.80;;;12.20;99.90;;;;;;2078172;28;20337;-66
2023/08/02 01:50:27;;;;;;;3.57;2.03;;;12.10;99.90;;;;;;2070913;28;20229;-66
2023/08/02 01:51:28;;;;;;;2.53;1.93;;;12.10;99.90;;;;;;2070804;28;20600;-66
2023/08/02 01:52:28;;;;;;;2.87;1.67;;;12.10;99.90;;;;;;2079213;28;20239;-66
2023/08/02 01:53:29;;;;;;;2.93;1.80;;;12.10;99.90;;;;;;2070030;28;20229;-66
2023/08/02 01:54:31;;;;;;;2.43;1.70;;;12.10;99.90;;;;;;2062231;28;20226;-66
2023/08/02 01:55:32;;;;;;;4.65;1.88;;;12.10;99.90;;;;;;2063753;28;20229;-67
2023/08/02 01:56:32;;;;;;;4.27;2.27;;;12.10;99.90;;;;;;2082721;28;20247;-68
2023/08/02 01:57:33;;;;;;;2.87;1.77;;;12.20;99.90;;;;;;2079731;28;20741;-67
2023/08/02 01:58:34;;;;;;;1.90;1.70;;;12.30;99.90;;;;;;2078394;28;20217;-67
2023/08/02 01:59:35;;;;;;;2.70;1.70;;;12.30;99.90;;;;;;2069019;28;20225;-67
2023/08/02 02:00:36;;;;;;;2.80;1.98;;;12.40;99.90;;;;;;2075798;28;20706;-67
2023/08/02 02:01:38;;;;;;;3.00;1.87;;;12.50;99.90;;;;;;2079193;28;20220;-67
2023/08/02 02:02:39;;;;;;;2.28;1.63;;;12.50;99.90;;;;;;2081609;28;20232;-67
2023/08/02 02:03:40;;;;;;;3.17;1.97;;;12.50;99.90;;;;;;2090220;28;20223;-67
2023/08/02 02:04:41;;;;;;;2.57;1.90;;;12.50;99.90;;;;;;2091561;28;20231;-67
2023/08/02 02:05:50;;;;;;;2.00;1.73;;;12.60;99.90;;;;;;2091796;28;20593;-67
2023/08/02 02:06:51;;;;;;;2.50;1.70;;;12.70;99.90;;;;;;2077617;28;20637;-67
2023/08/02 02:07:52;;;;;;;4.90;2.00;;;12.70;99.90;;;;;;2084889;28;20327;-67
2023/08/02 02:08:52;;;;;;;2.00;1.70;;;12.60;99.90;;;;;;2083624;28;20266;-67
2023/08/02 02:09:53;;;;;;;3.97;1.50;;;12.70;99.90;;;;;;2075309;28;20247;-67
2023/08/02 02:10:55;;;;;;;2.70;1.60;;;12.70;99.90;;;;;;2070342;28;20251;-67
2023/08/02 02:11:55;;;;;;;3.40;1.63;;;12.80;99.90;;;;;;2067710;28;20326;-67
2023/08/02 02:12:56;;;;;;;2.93;2.10;;;12.80;99.90;;;;;;2070041;28;20233;-67
2023/08/02 02:13:57;;;;;;;2.22;1.67;;;12.90;99.90;;;;;;2076092;28;20334;-67
2023/08/02 02:14:58;;;;;;;1.90;1.70;;;12.90;99.90;;;;;;2086715;28;20851;-67
2023/08/02 02:15:58;;;;;;;2.43;1.70;;;12.80;99.90;;;;;;2077744;28;20189;-67
2023/08/02 02:16:59;;;;;;;1.97;1.77;;;12.80;99.90;;;;;;2076149;28;20190;-67
2023/08/02 02:18:00;;;;;;;3.27;1.90;;;12.90;99.90;;;;;;2078831;28;20209;-67
2023/08/02 02:19:00;;;;;;;1.97;1.40;;;12.80;99.90;;;;;;2084025;28;20219;-67
2023/08/02 02:20:04;;;;;;;5.37;2.10;;;12.90;99.90;;;;;;2077958;28;20560;-67
2023/08/02 02:21:04;;;;;;;2.55;1.50;;;12.90;99.90;;;;;;2076188;28;20178;-67
2023/08/02 02:22:05;;;;;;;3.20;1.70;;;13.00;99.90;;;;;;2077218;28;20275;-67
2023/08/02 02:23:06;;;;;;;4.83;2.00;;;13.10;99.90;;;;;;2076148;28;20217;-67
2023/08/02 02:24:07;;;;;;;2.57;1.70;;;13.10;99.90;;;;;;2078118;28;20189;-67
2023/08/02 02:25:08;;;;;;;2.53;2.10;;;13.20;99.90;;;;;;2078561;28;20177;-67
2023/08/02 02:26:09;;;;;;;2.60;1.50;;;13.30;99.90;;;;;;2077801;28;20220;-67
2023/08/02 02:27:10;;;;;;;1.80;1.57;;;13.30;99.90;;;;;;2073044;28;20679;-67
2023/08/02 02:28:11;;;;;;;2.83;1.87;;;13.40;99.90;;;;;;2077556;28;20988;-67
2023/08/02 02:29:12;;;;;;;4.88;1.98;;;13.40;99.90;;;;;;2078053;28;20210;-67
2023/08/02 02:30:13;;;;;;;2.80;1.53;;;13.40;99.90;;;;;;2084060;28;20696;-67
2023/08/02 02:31:14;;;;;;;1.80;1.60;;;13.30;99.90;;;;;;2078135;28;20180;-67
2023/08/02 02:32:14;;;;;;;3.03;1.90;;;13.30;99.90;;;;;;2078445;28;20207;-67
2023/08/02 02:33:15;;;;;;;3.07;1.77;;;13.30;99.90;;;;;;2078280;28;20325;-67
2023/08/02 02:34:16;;;;;;;2.07;1.50;;;13.30;99.90;;;;;;2078393;28;22583;-67
2023/08/02 02:35:17;;;;;;;3.65;1.70;;;13.40;99.90;;;;;;2078377;28;20283;-67
2023/08/02 02:36:18;;;;;;;1.97;1.60;;;13.50;99.90;;;;;;2077095;28;20235;-67
2023/08/02 02:37:18;;;;;;;3.50;1.97;;;13.60;99.90;;;;;;2066416;28;20709;-67
2023/08/02 02:38:19;;;;;;;1.80;1.57;;;13.60;99.90;;;;;;2078042;28;20309;-67
2023/08/02 02:39:20;;;;;;;3.20;1.60;;;13.70;99.90;;;;;;2070034;28;20700;-67
2023/08/02 02:40:20;;;;;;;1.80;1.60;;;13.70;99.90;;;;;;2070055;28;20236;-67
2023/08/02 02:41:21;;;;;;;2.10;1.87;;;13.80;99.90;;;;;;2079978;28;20972;-67
2023/08/02 02:42:22;;;;;;;2.67;1.60;;;13.80;99.90;;;;;;2082764;28;20593;-67
2023/08/02 02:43:22;;;;;;;3.47;1.87;;;13.90;99.90;;;;;;2078308;28;20281;-67
2023/08/02 02:44:40;;;;;;;3.93;2.00;;;14.00;99.90;;;;;;2070429;28;20304;-67
2023/08/02 02:45:41;;;;;;;1.80;1.52;;;13.90;99.90;;;;;;2072376;28;20229;-67
2023/08/02 02:46:41;;;;;;;3.10;1.80;;;13.60;99.90;;;;;;2071109;28;20236;-67
2023/08/02 02:47:42;;;;;;;4.77;2.10;;;13.60;99.90;;;;;;2069782;28;20830;-67
2023/08/02 02:48:43;;;;;;;2.30;1.60;;;13.50;99.90;;;;;;2070163;28;20225;-67
2023/08/02 02:49:43;;;;;;;2.70;1.60;;;13.50;99.90;;;;;;2070571;28;20577;-67
2023/08/02 02:50:44;;;;;;;2.30;1.67;;;13.60;99.90;;;;;;2078122;28;20346;-67
2023/08/02 02:51:45;;;;;;;3.10;1.80;;;13.60;99.90;;;;;;2077961;28;20533;-67
2023/08/02 02:52:45;;;;;;;3.50;1.90;;;13.60;99.90;;;;;;2078497;28;20252;-67
2023/08/02 02:53:46;;;;;;;2.10;1.50;;;13.70;99.90;;;;;;2077851;28;20233;-67
2023/08/02 02:54:47;;;;;;;2.70;1.67;;;13.80;99.90;;;;;;2063777;28;20377;-67
2023/08/02 02:55:47;;;;;;;2.67;1.97;;;13.70;99.90;;;;;;2078308;28;20315;-67
2023/08/02 02:56:48;;;;;;;1.83;1.67;;;13.70;99.90;;;;;;2079658;28;20252;-67
2023/08/02 02:57:50;;;;;;;2.47;1.60;;;13.70;99.90;;;;;;2080019;28;20224;-67
2023/08/02 02:58:51;;;;;;;2.22;1.70;;;13.70;99.90;;;;;;2083433;28;20266;-67
2023/08/02 02:59:52;;;;;;;4.20;2.20;;;13.80;99.90;;;;;;2078900;28;20231;-67
2023/08/02 03:00:53;;;;;;;3.27;2.10;;;13.90;99.90;;;;;;2083443;28;20216;-67
2023/08/02 03:01:54;;;;;;;3.03;1.63;;;13.90;99.90;;;;;;2078359;28;20727;-67
2023/08/02 03:02:55;;;;;;;2.10;1.90;;;13.90;99.90;;;;;;2075149;28;20217;-67
2023/08/02 03:03:55;;;;;;;3.80;1.97;;;13.90;99.90;;;;;;2075853;28;20533;-67
2023/08/02 03:04:56;;;;;;;4.23;1.90;;;13.80;99.90;;;;;;2076796;28;20239;-69
2023/08/02 03:05:57;;;;;;;2.40;1.70;;;13.90;99.90;;;;;;2077230;28;20196;-68
2023/08/02 03:06:58;;;;;;;1.93;1.67;;;13.90;99.90;;;;;;2077981;28;20280;-67
2023/08/02 03:07:58;;;;;;;2.20;1.70;;;13.90;99.90;;;;;;2077552;28;20232;-67
2023/08/02 03:08:59;;;;;;;2.30;2.00;;;14.00;99.90;;;;;;2091060;28;20286;-67
2023/08/02 03:10:00;;;;;;;2.60;1.80;;;14.10;99.90;;;;;;2085208;28;20216;-67
2023/08/02 03:11:00;;;;;;;3.00;1.80;;;14.10;99.90;;;;;;2085719;28;20561;-67
2023/08/02 03:12:01;;;;;;;4.73;2.07;;;14.00;99.90;;;;;;2084622;28;20220;-66
2023/08/02 03:13:02;;;;;;;3.27;1.70;;;13.90;99.90;;;;;;2086303;28;20198;-67
2023/08/02 03:14:04;;;;;;;2.10;1.90;;;13.80;99.90;;;;;;2085466;28;20180;-67
2023/08/02 03:15:06;;;;;;;2.80;1.80;;;13.80;99.90;;;;;;2092425;28;20203;-66
2023/08/02 03:16:07;;;;;;;2.97;1.85;;;13.80;99.90;;;;;;2090308;28;20282;-66
2023/08/02 03:17:08;;;;;;;3.13;2.37;;;13.80;99.90;;;;;;2086112;28;20195;-66
2023/08/02 03:18:08;;;;;;;2.73;1.70;;;13.90;99.90;;;;;;2086725;28;20176;-66
2023/08/02 03:19:11;;;;;;;2.93;1.97;;;14.00;99.90;;;;;;2084548;28;20275;-66
2023/08/02 03:20:12;;;;;;;2.72;1.77;;;14.00;99.90;;;;;;2084305;28;20188;-66
2023/08/02 03:21:12;;;;;;;2.57;2.00;;;14.00;99.90;;;;;;2089058;28;20172;-66
2023/08/02 03:22:13;;;;;;;2.87;1.80;;;14.00;99.90;;;;;;2088717;28;20187;-66
2023/08/02 03:23:14;;;;;;;3.07;1.90;;;14.00;99.90;;;;;;2086660;28;20179;-66
2023/08/02 03:24:14;;;;;;;2.80;2.37;;;14.10;99.90;;;;;;2071989;28;20196;-66
2023/08/02 03:25:15;;;;;;;3.53;2.00;;;14.10;99.90;;;;;;2084188;28;20673;-66
2023/08/02 03:26:16;;;;;;;3.10;1.80;;;14.10;99.90;;;;;;2072841;28;20271;-66
2023/08/02 03:27:16;;;;;;;3.80;2.17;;;14.10;99.90;;;;;;2071137;28;20247;-66
2023/08/02 03:28:17;;;;;;;3.57;1.90;;;13.90;99.90;;;;;;2085206;28;20763;-65
2023/08/02 03:29:18;;;;;;;3.00;1.93;;;13.90;99.90;;;;;;2085857;28;20232;-67
2023/08/02 03:30:18;;;;;;;2.53;1.73;;;13.80;99.90;;;;;;2082652;28;20224;-67
2023/08/02 03:31:19;;;;;;;2.93;1.80;;;13.70;99.90;;;;;;2065954;28;20470;-67
2023/08/02 03:32:20;;;;;;;3.47;2.03;;;13.60;99.90;;;;;;2064580;28;20217;-67
2023/08/02 03:33:20;;;;;;;2.67;1.70;;;13.40;99.90;;;;;;2065386;28;20217;-67
2023/08/02 03:34:21;;;;;;;3.50;2.30;;;13.40;99.90;;;;;;2069330;28;20257;-67
2023/08/02 03:35:22;;;;;;;2.43;2.23;;;13.30;99.90;;;;;;2077837;28;20232;-67
2023/08/02 03:36:22;;;;;;;2.87;2.00;;;13.20;99.90;;;;;;2078919;28;20221;-67
2023/08/02 03:37:23;;;;;;;3.00;1.87;;;13.20;99.90;;;;;;2068086;28;20701;-67
2023/08/02 03:38:25;;;;;;;2.90;2.10;;;13.20;99.90;;;;;;2060523;28;20234;-67
2023/08/02 03:39:29;;;;;;;3.55;2.05;;;13.20;99.90;;;;;;2071421;28;20232;-67
2023/08/02 03:40:30;;;;;;;6.30;2.13;;;13.30;99.90;;;;;;2084561;28;20330;-67
2023/08/02 03:41:32;;;;;;;5.45;1.90;;;13.30;99.90;;;;;;2086710;28;20227;-65
2023/08/02 03:42:32;;;;;;;2.45;1.77;;;13.30;99.90;;;;;;2079291;28;20225;-67
2023/08/02 03:43:33;;;;;;;4.37;2.10;;;13.30;99.90;;;;;;2079917;28;20221;-67
2023/08/02 03:44:34;;;;;;;3.27;2.10;;;13.30;99.90;;;;;;2080541;28;20284;-67
2023/08/02 03:45:34;;;;;;;2.80;1.93;;;13.30;99.90;;;;;;2080194;28;20644;-67
2023/08/02 03:46:35;;;;;;;2.80;1.80;;;13.30;99.90;;;;;;2080938;28;20225;-67
2023/08/02 03:47:36;;;;;;;7.87;5.83;;;13.30;99.90;;;;;;2082240;28;20644;-67
2023/08/02 03:48:36;;;;;;;5.67;4.13;;;13.20;99.90;;;;;;2082734;28;20224;-67
2023/08/02 03:49:38;;;;;;;4.10;2.70;;;13.20;99.90;;;;;;2084046;28;20625;-67
2023/08/02 03:50:39;;;;;;;5.05;2.58;;;13.20;99.90;;;;;;2070875;28;20221;-67
2023/08/02 03:51:40;;;;;;;4.03;2.20;;;13.10;99.90;;;;;;2069599;28;20228;-67
2023/08/02 03:52:40;;;;;;;4.23;2.40;;;13.10;99.90;;;;;;2078481;28;20258;-67
2023/08/02 03:53:41;;;;;;;4.23;1.93;;;13.20;99.90;;;;;;2077738;28;20286;-67
2023/08/02 03:54:42;;;;;;;3.07;2.47;;;13.30;99.90;;;;;;2077915;28;20220;-67
2023/08/02 03:55:42;;;;;;;3.80;2.30;;;13.30;99.90;;;;;;2078999;28;20597;-68
2023/08/02 03:56:43;;;;;;;4.07;2.47;;;13.10;99.90;;;;;;2071058;28;20224;-67
2023/08/02 03:57:44;;;;;;;3.30;2.47;;;13.10;99.90;;;;;;2071416;28;20221;-67
2023/08/02 03:58:45;;;;;;;4.28;2.40;;;13.10;99.90;;;;;;2075193;28;20224;-67
2023/08/02 03:59:46;;;;;;;2.93;2.10;;;13.10;99.90;;;;;;2076017;28;20221;-67
2023/08/02 04:00:48;;;;;;;3.57;2.60;;;13.00;99.90;;;;;;2076735;28;20228;-67
2023/08/02 04:01:49;;;;;;;2.60;2.15;;;13.00;99.90;;;;;;2076739;28;20301;-67
2023/08/02 04:02:50;;;;;;;3.13;2.10;;;13.00;99.90;;;;;;2077460;28;20243;-67
2023/08/02 04:03:51;;;;;;;3.33;2.35;;;13.00;99.90;;;;;;2077304;28;20275;-67
2023/08/02 04:04:52;;;;;;;3.90;2.60;;;12.80;99.90;;;;;;2084822;28;20642;-67
2023/08/02 04:05:52;;;;;;;4.63;2.37;;;12.90;99.90;;;;;;2085526;28;20231;-67
2023/08/02 04:06:53;;;;;;;2.97;2.47;;;12.80;99.90;;;;;;2078957;28;20975;-67
2023/08/02 04:07:54;;;;;;;4.03;2.37;;;12.80;99.90;;;;;;2082308;28;20224;-67
2023/08/02 04:08:54;;;;;;;3.40;2.83;;;12.80;99.90;;;;;;2075207;28;20259;-67
2023/08/02 04:09:56;;;;;;;3.77;2.50;;;12.80;99.90;;;;;;2081864;28;20212;-67
2023/08/02 04:11:04;;;;;;;3.28;2.40;;;12.70;99.90;;;;;;2090676;28;20249;-67
2023/08/02 04:12:05;;;;;;;3.83;2.42;;;12.60;99.90;;;;;;2078682;28;20181;-67
2023/08/02 04:13:06;;;;;;;2.97;2.20;;;12.60;99.90;;;;;;2070742;28;20204;-67
2023/08/02 04:14:06;;;;;;;3.93;2.33;;;12.50;99.90;;;;;;2083511;28;20191;-67
2023/08/02 04:15:08;;;;;;;4.47;2.57;;;12.50;99.90;;;;;;2085176;28;20204;-67
2023/08/02 04:16:09;;;;;;;3.33;2.33;;;12.60;99.90;;;;;;2078699;28;20189;-67
2023/08/02 04:17:10;;;;;;;3.40;2.60;;;12.60;99.90;;;;;;2079014;28;20608;-67
2023/08/02 04:18:10;;;;;;;4.87;2.47;;;12.60;99.90;;;;;;2082622;28;20291;-67
2023/08/02 04:19:11;;;;;;;3.50;2.60;;;12.60;99.90;;;;;;2081483;28;20187;-67
2023/08/02 04:20:12;;;;;;;3.10;2.50;;;12.60;99.90;;;;;;2086591;28;20305;-67
2023/08/02 04:21:19;;;;;;;3.23;2.47;;;12.60;99.90;;;;;;2070164;28;20276;-67
2023/08/02 04:22:20;;;;;;;3.35;2.60;;;12.60;99.90;;;;;;2075086;28;20290;-67
2023/08/02 04:23:21;;;;;;;4.25;2.92;;;12.70;99.90;;;;;;2077007;28;20221;-67
2023/08/02 04:24:22;;;;;;;4.77;2.87;;;12.80;99.90;;;;;;2073092;28;20590;-66
2023/08/02 04:25:23;;;;;;;3.67;2.73;;;12.80;99.90;;;;;;2068083;28;20627;-66
2023/08/02 04:26:24;;;;;;;4.70;2.95;;;12.80;99.90;;;;;;2070092;28;20229;-66
2023/08/02 04:27:24;;;;;;;4.17;2.73;;;12.70;99.90;;;;;;2077677;28;20220;-66
2023/08/02 04:28:25;;;;;;;4.43;2.80;;;12.70;99.90;;;;;;2084749;28;20698;-66
2023/08/02 04:29:26;;;;;;;5.57;3.37;;;12.70;99.90;;;;;;2085910;28;20223;-66
2023/08/02 04:30:27;;;;;;;3.70;2.73;;;12.70;99.90;;;;;;2074487;28;20575;-66
2023/08/02 04:31:27;;;;;;;5.40;3.30;;;12.70;99.90;;;;;;2078304;28;20228;-66
2023/08/02 04:32:28;;;;;;;4.80;3.10;;;12.70;99.90;;;;;;2074909;28;20720;-66
2023/08/02 04:33:29;;;;;;;4.47;2.90;;;12.70;99.90;;;;;;2077428;28;20280;-66
2023/08/02 04:34:29;;;;;;;4.03;2.70;;;12.70;99.90;;;;;;2080591;28;20225;-66
2023/08/02 04:35:30;;;;;;;5.27;3.17;;;12.70;99.90;;;;;;2081460;28;20244;-67
2023/08/02 04:36:31;;;;;;;4.57;3.60;;;12.70;99.90;;;;;;2081956;28;20220;-66
2023/08/02 04:37:32;;;;;;;4.47;2.97;;;12.70;99.90;;;;;;2064352;28;20258;-66
2023/08/02 04:38:33;;;;;;;4.97;3.17;;;12.60;99.90;;;;;;2069491;28;20300;-66
2023/08/02 04:39:33;;;;;;;5.38;3.17;;;12.60;99.90;;;;;;2085034;28;20710;-66
2023/08/02 04:40:40;;;;;;;3.30;3.00;;;12.60;99.90;;;;;;2085603;28;20224;-67
2023/08/02 04:41:41;;;;;;;4.38;2.90;;;12.70;99.90;;;;;;2077182;28;20284;-66
2023/08/02 04:42:41;;;;;;;5.80;3.40;;;12.70;99.90;;;;;;2079222;28;20718;-66
2023/08/02 04:43:45;;;;;;;3.63;2.70;;;12.70;99.90;;;;;;2079633;28;20333;-66
2023/08/02 04:44:46;;;;;;;3.80;2.90;;;12.70;99.90;;;;;;2085906;28;20235;-67
2023/08/02 04:45:46;;;;;;;4.63;3.60;;;12.70;99.90;;;;;;2086062;28;20338;-67
2023/08/02 04:46:47;;;;;;;7.30;3.33;;;12.70;99.90;;;;;;2083709;28;20263;-67
2023/08/02 04:47:48;;;;;;;5.03;3.07;;;12.70;99.90;;;;;;2080267;28;20229;-67
2023/08/02 04:48:48;;;;;;;6.00;3.77;;;12.60;99.90;;;;;;2078139;28;20298;-65
2023/08/02 04:49:49;;;;;;;4.07;3.17;;;12.50;99.90;;;;;;2091271;28;20226;-65
2023/08/02 04:50:50;;;;;;;3.90;2.97;;;12.40;99.90;;;;;;2086539;28;20289;-66
2023/08/02 04:51:51;;;;;;;4.17;3.13;;;12.40;99.90;;;;;;2078884;28;20236;-66
2023/08/02 04:52:52;;;;;;;4.07;3.07;;;12.40;99.90;;;;;;2071657;28;20233;-67
2023/08/02 04:53:52;;;;;;;4.33;3.00;;;12.40;99.90;;;;;;2078917;28;20260;-67
2023/08/02 04:54:53;;;;;;;5.23;3.10;;;12.40;99.90;;;;;;2073849;28;20231;-67
2023/08/02 04:55:54;;;;;;;3.80;3.00;;;12.50;99.90;;;;;;2067965;28;20237;-67
2023/08/02 04:56:54;;;;;;;5.37;2.73;;;12.50;99.90;;;;;;2070069;28;20229;-67
2023/08/02 04:57:56;;;;;;;6.07;3.83;;;12.50;99.90;;;;;;2075844;28;20260;-67
2023/08/02 04:58:57;;;;;;;5.22;3.05;;;12.50;99.90;;;;;;2078488;28;20228;-68
2023/08/02 04:59:57;;;;;;;5.13;3.80;;;12.40;99.90;;;;;;2078996;28;20272;-68
2023/08/02 05:01:04;;;;;;;5.10;2.97;;;12.50;99.90;;;;;;2079815;28;20719;-67
2023/08/02 05:02:05;;;;;;;5.57;3.30;;;12.50;99.90;;;;;;2079157;28;20215;-67
2023/08/02 05:03:06;;;;;;;4.83;3.27;;;12.40;99.90;;;;;;2079640;28;20848;-68
2023/08/02 05:04:08;;;;;;;3.77;2.83;;;12.40;99.90;;;;;;2070769;28;20190;-67
2023/08/02 05:05:09;;;;;;;4.05;3.10;;;12.50;99.90;;;;;;2069567;28;20561;-67
2023/08/02 05:06:10;;;;;;;4.30;3.30;;;12.50;99.90;;;;;;2083370;28;20187;-67
2023/08/02 05:07:11;;;;;;;4.22;3.00;;;12.60;99.90;;;;;;2085146;28;20687;-67
2023/08/02 05:08:11;;;;;;;6.80;3.07;;;12.60;99.90;;;;;;2075018;28;20192;-67
2023/08/02 05:09:13;;;;;;;3.27;2.67;;;12.60;99.90;;;;;;2062511;28;20186;-65
2023/08/02 05:10:14;;;;;;;4.50;2.97;;;12.70;99.90;;;;;;2078331;28;20180;-65
2023/08/02 05:11:15;;;;;;;4.40;3.20;;;12.70;99.90;;;;;;2080440;28;20295;-65
2023/08/02 05:12:15;;;;;;;4.47;3.20;;;12.80;99.90;;;;;;2084792;28;20207;-65
2023/08/02 05:13:16;;;;;;;3.53;2.63;;;12.80;99.90;;;;;;2070898;28;20724;-66
2023/08/02 05:14:18;;;;;;;5.77;3.50;;;12.80;99.90;;;;;;2071258;28;20245;-66
2023/08/02 05:15:19;;;;;;;4.70;3.35;;;12.80;99.90;;;;;;2073597;28;20340;-66
2023/08/02 05:16:19;;;;;;;3.53;3.00;;;12.80;99.90;;;;;;2083842;28;20612;-66
2023/08/02 05:17:20;;;;;;;5.17;3.27;;;12.70;99.90;;;;;;2084476;28;20235;-66
2023/08/02 05:18:21;;;;;;;3.07;2.63;;;12.70;99.90;;;;;;2079710;28;20236;-66
2023/08/02 05:19:21;;;;;;;4.23;3.43;;;12.70;99.90;;;;;;2079162;28;20228;-67
2023/08/02 05:20:22;;;;;;;4.80;2.83;;;12.70;99.90;;;;;;2071235;28;20229;-66
2023/08/02 05:21:23;;;;;;;5.00;3.33;;;12.80;99.90;;;;;;2071125;28;20308;-66